createdAt,value
2023-02-04T00:00:25.508Z,6.39
2023-02-04T00:01:25.504Z,6.39
2023-02-04T00:02:25.528Z,6.39
2023-02-04T00:03:25.514Z,6.39
2023-02-04T00:04:25.448Z,6.42
2023-02-04T00:05:25.471Z,6.44
2023-02-04T00:06:25.429Z,6.44
2023-02-04T00:07:25.432Z,6.44
2023-02-04T00:08:25.456Z,6.45
2023-02-04T00:09:25.412Z,6.44
2023-02-04T00:10:25.395Z,6.45
2023-02-04T00:11:25.379Z,6.45
2023-02-04T00:12:25.368Z,6.44
2023-02-04T00:13:25.369Z,6.48
2023-02-04T00:14:25.340Z,6.46
2023-02-04T00:15:25.376Z,6.46
2023-02-04T00:16:25.394Z,6.48
2023-02-04T00:17:25.345Z,6.45
2023-02-04T00:18:25.295Z,6.44
2023-02-04T00:19:25.323Z,6.46
2023-02-04T00:20:25.288Z,6.45
2023-02-04T00:21:25.267Z,6.39
2023-02-04T00:22:25.247Z,6.41
2023-02-04T00:23:25.254Z,6.39
2023-02-04T00:24:25.259Z,6.38
2023-02-04T00:25:25.265Z,6.36
2023-02-04T00:26:25.210Z,6.36
2023-02-04T00:27:25.232Z,6.35
2023-02-04T00:28:25.200Z,6.35
2023-02-04T00:29:25.205Z,6.33
2023-02-04T00:30:25.188Z,6.33
2023-02-04T00:31:25.379Z,6.31
2023-02-04T00:32:25.208Z,6.31
2023-02-04T00:33:25.129Z,6.35
2023-02-04T00:34:25.117Z,6.33
2023-02-04T00:35:25.135Z,6.31
2023-02-04T00:36:25.094Z,6.27
2023-02-04T00:37:25.137Z,6.24
2023-02-04T00:38:25.077Z,6.19
2023-02-04T00:39:25.081Z,6.16
2023-02-04T00:40:25.088Z,6.14
2023-02-04T00:41:25.069Z,6.12
2023-02-04T00:42:25.051Z,6.08
2023-02-04T00:43:25.026Z,6.05
2023-02-04T00:44:25.027Z,6.04
2023-02-04T00:45:25.076Z,6.04
2023-02-04T00:46:25.011Z,6.01
2023-02-04T00:47:24.993Z,5.99
2023-02-04T00:48:26.688Z,5.97
2023-02-04T00:49:24.971Z,5.93
2023-02-04T00:50:24.951Z,5.89
2023-02-04T00:51:24.979Z,5.86
2023-02-04T00:52:24.930Z,5.83
2023-02-04T00:53:24.934Z,5.80
2023-02-04T00:54:24.907Z,5.79
2023-02-04T00:55:24.924Z,5.75
2023-02-04T00:56:24.890Z,5.72
2023-02-04T00:57:25.140Z,5.69
2023-02-04T00:58:24.859Z,5.66
2023-02-04T00:59:24.864Z,5.65
2023-02-04T01:00:24.838Z,5.64
2023-02-04T01:01:24.940Z,5.62
2023-02-04T01:02:24.856Z,5.62
2023-02-04T01:03:24.820Z,5.64
2023-02-04T01:04:24.801Z,5.64
2023-02-04T01:05:24.809Z,5.62
2023-02-04T01:06:24.802Z,5.62
2023-02-04T01:07:24.812Z,5.61
2023-02-04T01:08:24.775Z,5.62
2023-02-04T01:09:24.758Z,5.62
2023-02-04T01:10:24.716Z,5.62
2023-02-04T01:11:24.762Z,5.64
2023-02-04T01:12:24.743Z,5.64
2023-02-04T01:13:24.894Z,5.65
2023-02-04T01:14:24.720Z,5.66
2023-02-04T01:15:24.718Z,5.66
2023-02-04T01:16:24.704Z,5.65
2023-02-04T01:17:24.665Z,5.66
2023-02-04T01:18:24.669Z,5.66
2023-02-04T01:19:24.624Z,5.65
2023-02-04T01:20:24.625Z,5.64
2023-02-04T01:21:24.616Z,5.64
2023-02-04T01:22:24.594Z,5.64
2023-02-04T01:23:24.606Z,5.64
2023-02-04T01:24:24.607Z,5.64
2023-02-04T01:25:24.580Z,5.62
2023-02-04T01:26:24.543Z,5.64
2023-02-04T01:27:24.582Z,5.62
2023-02-04T01:28:24.539Z,5.64
2023-02-04T01:29:24.570Z,5.64
2023-02-04T01:30:24.514Z,5.64
2023-02-04T01:31:24.599Z,5.64
2023-02-04T01:32:24.508Z,5.65
2023-02-04T01:33:24.494Z,5.65
2023-02-04T01:34:24.471Z,5.64
2023-02-04T01:35:24.466Z,5.64
2023-02-04T01:36:24.446Z,5.62
2023-02-04T01:37:24.468Z,5.64
2023-02-04T01:38:24.428Z,5.62
2023-02-04T01:39:24.413Z,5.61
2023-02-04T01:40:24.393Z,5.62
2023-02-04T01:41:24.406Z,5.61
2023-02-04T01:42:24.419Z,5.61
2023-02-04T01:43:24.408Z,5.61
2023-02-04T01:44:24.358Z,5.59
2023-02-04T01:45:24.353Z,5.59
2023-02-04T01:46:24.335Z,5.62
2023-02-04T01:47:24.325Z,5.61
2023-02-04T01:48:24.332Z,5.61
2023-02-04T01:49:24.307Z,5.61
2023-02-04T01:50:24.297Z,5.61
2023-02-04T01:51:24.286Z,5.62
2023-02-04T01:52:24.253Z,5.61
2023-02-04T01:53:24.265Z,5.62
2023-02-04T01:54:24.256Z,5.64
2023-02-04T01:55:24.319Z,5.62
2023-02-04T01:56:24.226Z,5.64
2023-02-04T01:57:24.213Z,5.64
2023-02-04T01:58:24.202Z,5.65
2023-02-04T01:59:24.215Z,5.65
2023-02-04T02:00:24.188Z,5.65
2023-02-04T02:01:24.226Z,5.64
2023-02-04T02:02:24.228Z,5.65
2023-02-04T02:03:24.163Z,5.64
2023-02-04T02:04:24.120Z,5.65
2023-02-04T02:05:24.108Z,5.64
2023-02-04T02:06:24.115Z,5.64
2023-02-04T02:07:24.111Z,5.65
2023-02-04T02:08:24.066Z,5.65
2023-02-04T02:09:24.083Z,5.64
2023-02-04T02:10:24.100Z,5.64
2023-02-04T02:11:24.070Z,5.61
2023-02-04T02:12:24.067Z,5.59
2023-02-04T02:13:24.026Z,5.59
2023-02-04T02:14:24.048Z,5.57
2023-02-04T02:15:24.025Z,5.57
2023-02-04T02:16:24.016Z,5.57
2023-02-04T02:17:23.981Z,5.57
2023-02-04T02:18:23.985Z,5.56
2023-02-04T02:19:23.965Z,5.54
2023-02-04T02:20:23.955Z,5.56
2023-02-04T02:21:23.932Z,5.56
2023-02-04T02:22:23.918Z,5.57
2023-02-04T02:23:23.942Z,5.56
2023-02-04T02:24:23.973Z,5.56
2023-02-04T02:25:23.901Z,5.56
2023-02-04T02:26:23.880Z,5.56
2023-02-04T02:27:23.885Z,5.56
2023-02-04T02:28:23.873Z,5.57
2023-02-04T02:29:23.899Z,5.57
2023-02-04T02:30:23.835Z,5.56
2023-02-04T02:31:23.980Z,5.57
2023-02-04T02:32:23.806Z,5.57
2023-02-04T02:33:23.817Z,5.59
2023-02-04T02:34:23.811Z,5.57
2023-02-04T02:35:23.774Z,5.56
2023-02-04T02:36:23.791Z,5.56
2023-02-04T02:37:23.789Z,5.57
2023-02-04T02:38:23.748Z,5.59
2023-02-04T02:39:23.761Z,5.61
2023-02-04T02:40:23.726Z,5.57
2023-02-04T02:41:23.713Z,5.59
2023-02-04T02:42:23.693Z,5.59
2023-02-04T02:43:23.693Z,5.59
2023-02-04T02:44:23.709Z,5.59
2023-02-04T02:45:23.675Z,5.61
2023-02-04T02:46:23.692Z,5.61
2023-02-04T02:47:23.685Z,5.59
2023-02-04T02:48:23.647Z,5.59
2023-02-04T02:49:23.657Z,5.59
2023-02-04T02:50:23.632Z,5.61
2023-02-04T02:51:23.601Z,5.61
2023-02-04T02:52:23.589Z,5.57
2023-02-04T02:53:23.597Z,5.57
2023-02-04T02:54:23.621Z,5.57
2023-02-04T02:55:23.581Z,5.57
2023-02-04T02:56:23.540Z,5.57
2023-02-04T02:57:23.554Z,5.57
2023-02-04T02:58:23.512Z,5.56
2023-02-04T02:59:23.508Z,5.59
2023-02-04T03:00:23.583Z,5.59
2023-02-04T03:01:23.594Z,5.57
2023-02-04T03:02:23.529Z,5.56
2023-02-04T03:03:23.487Z,5.57
2023-02-04T03:04:23.460Z,5.54
2023-02-04T03:05:23.443Z,5.57
2023-02-04T03:06:23.483Z,5.57
2023-02-04T03:07:23.424Z,5.57
2023-02-04T03:08:23.407Z,5.56
2023-02-04T03:09:23.411Z,5.56
2023-02-04T03:10:23.389Z,5.56
2023-02-04T03:11:23.375Z,5.57
2023-02-04T03:12:23.387Z,5.56
2023-02-04T03:13:23.385Z,5.56
2023-02-04T03:14:23.326Z,5.54
2023-02-04T03:15:23.339Z,5.56
2023-02-04T03:16:23.361Z,5.54
2023-02-04T03:17:23.326Z,5.57
2023-02-04T03:18:23.278Z,5.53
2023-02-04T03:19:23.277Z,5.54
2023-02-04T03:20:24.075Z,5.53
2023-02-04T03:21:23.272Z,5.51
2023-02-04T03:22:23.256Z,5.51
2023-02-04T03:23:23.249Z,5.53
2023-02-04T03:24:23.252Z,5.51
2023-02-04T03:25:23.247Z,5.53
2023-02-04T03:26:23.231Z,5.53
2023-02-04T03:27:23.246Z,5.53
2023-02-04T03:28:23.205Z,5.51
2023-02-04T03:29:23.184Z,5.53
2023-02-04T03:30:23.171Z,5.54
2023-02-04T03:31:23.351Z,5.53
2023-02-04T03:32:23.163Z,5.53
2023-02-04T03:33:23.133Z,5.54
2023-02-04T03:34:23.132Z,5.56
2023-02-04T03:35:23.101Z,5.54
2023-02-04T03:36:23.114Z,5.56
2023-02-04T03:37:23.113Z,5.54
2023-02-04T03:38:23.077Z,5.54
2023-02-04T03:39:23.065Z,5.56
2023-02-04T03:40:23.067Z,5.54
2023-02-04T03:41:23.085Z,5.53
2023-02-04T03:42:23.054Z,5.56
2023-02-04T03:43:23.038Z,5.53
2023-02-04T03:44:23.036Z,5.57
2023-02-04T03:45:23.008Z,5.54
2023-02-04T03:46:23.105Z,5.54
2023-02-04T03:47:22.988Z,5.54
2023-02-04T03:48:22.989Z,5.54
2023-02-04T03:49:22.956Z,5.54
2023-02-04T03:50:22.956Z,5.56
2023-02-04T03:51:22.952Z,5.54
2023-02-04T03:52:22.956Z,5.54
2023-02-04T03:53:22.956Z,5.53
2023-02-04T03:54:22.918Z,5.54
2023-02-04T03:55:22.883Z,5.53
2023-02-04T03:56:22.918Z,5.53
2023-02-04T03:57:22.870Z,5.53
2023-02-04T03:58:22.896Z,5.51
2023-02-04T03:59:22.858Z,5.50
2023-02-04T04:00:23.307Z,5.50
2023-02-04T04:01:22.847Z,5.51
2023-02-04T04:02:22.913Z,5.50
2023-02-04T04:03:22.810Z,5.47
2023-02-04T04:04:22.830Z,5.48
2023-02-04T04:05:22.783Z,5.47
2023-02-04T04:06:22.823Z,5.46
2023-02-04T04:07:22.807Z,5.43
2023-02-04T04:08:22.778Z,5.43
2023-02-04T04:09:22.744Z,5.43
2023-02-04T04:10:22.727Z,5.43
2023-02-04T04:11:22.738Z,5.41
2023-02-04T04:12:22.718Z,5.41
2023-02-04T04:13:22.685Z,5.41
2023-02-04T04:14:22.688Z,5.39
2023-02-04T04:15:22.684Z,5.38
2023-02-04T04:16:22.734Z,5.38
2023-02-04T04:17:22.669Z,5.38
2023-02-04T04:18:22.685Z,5.38
2023-02-04T04:19:22.616Z,5.38
2023-02-04T04:20:22.996Z,5.41
2023-02-04T04:21:22.629Z,5.38
2023-02-04T04:22:22.601Z,5.38
2023-02-04T04:23:22.610Z,5.38
2023-02-04T04:24:22.564Z,5.38
2023-02-04T04:25:22.557Z,5.38
2023-02-04T04:26:22.556Z,5.38
2023-02-04T04:27:22.544Z,5.38
2023-02-04T04:28:22.558Z,5.39
2023-02-04T04:29:22.503Z,5.39
2023-02-04T04:30:22.517Z,5.39
2023-02-04T04:31:22.641Z,5.41
2023-02-04T04:32:22.520Z,5.39
2023-02-04T04:33:22.473Z,5.41
2023-02-04T04:34:22.460Z,5.43
2023-02-04T04:35:22.435Z,5.39
2023-02-04T04:36:22.455Z,5.41
2023-02-04T04:37:22.431Z,5.41
2023-02-04T04:38:22.426Z,5.41
2023-02-04T04:39:22.390Z,5.39
2023-02-04T04:40:22.438Z,5.43
2023-02-04T04:41:22.385Z,5.44
2023-02-04T04:42:22.393Z,5.44
2023-02-04T04:43:22.345Z,5.46
2023-02-04T04:44:22.350Z,5.44
2023-02-04T04:45:22.340Z,5.44
2023-02-04T04:46:22.401Z,5.44
2023-02-04T04:47:22.328Z,5.46
2023-02-04T04:48:22.297Z,5.46
2023-02-04T04:49:22.276Z,5.46
2023-02-04T04:50:22.267Z,5.47
2023-02-04T04:51:22.258Z,5.47
2023-02-04T04:52:22.283Z,5.46
2023-02-04T04:53:22.247Z,5.46
2023-02-04T04:54:22.229Z,5.46
2023-02-04T04:55:22.212Z,5.44
2023-02-04T04:56:22.234Z,5.44
2023-02-04T04:57:22.194Z,5.43
2023-02-04T04:58:22.204Z,5.41
2023-02-04T04:59:22.166Z,5.41
2023-02-04T05:00:22.188Z,5.41
2023-02-04T05:01:22.185Z,5.39
2023-02-04T05:02:22.164Z,5.38
2023-02-04T05:03:22.172Z,5.35
2023-02-04T05:04:22.194Z,5.36
2023-02-04T05:05:22.110Z,5.32
2023-02-04T05:06:22.112Z,5.30
2023-02-04T05:07:22.084Z,5.28
2023-02-04T05:08:22.082Z,5.26
2023-02-04T05:09:22.090Z,5.23
2023-02-04T05:10:22.084Z,5.23
2023-02-04T05:11:22.057Z,5.21
2023-02-04T05:12:22.042Z,5.21
2023-02-04T05:13:22.022Z,5.21
2023-02-04T05:14:22.009Z,5.20
2023-02-04T05:15:22.070Z,5.20
2023-02-04T05:16:22.057Z,5.20
2023-02-04T05:17:21.973Z,5.18
2023-02-04T05:18:22.002Z,5.18
2023-02-04T05:19:21.979Z,5.18
2023-02-04T05:20:21.942Z,5.15
2023-02-04T05:21:22.185Z,5.14
2023-02-04T05:22:21.962Z,5.11
2023-02-04T05:23:21.902Z,5.10
2023-02-04T05:24:21.913Z,5.10
2023-02-04T05:25:21.902Z,5.07
2023-02-04T05:26:29.891Z,5.05
2023-02-04T05:27:22.885Z,5.05
2023-02-04T05:28:21.852Z,5.04
2023-02-04T05:29:21.859Z,5.02
2023-02-04T05:30:21.867Z,4.99
2023-02-04T05:31:21.965Z,4.97
2023-02-04T05:32:21.811Z,4.97
2023-02-04T05:33:21.804Z,4.96
2023-02-04T05:34:21.798Z,4.97
2023-02-04T05:35:21.784Z,4.97
2023-02-04T05:36:21.787Z,4.96
2023-02-04T05:37:21.752Z,4.97
2023-02-04T05:38:21.750Z,4.96
2023-02-04T05:39:21.732Z,4.96
2023-02-04T05:40:21.746Z,4.97
2023-02-04T05:41:21.716Z,4.99
2023-02-04T05:42:21.701Z,4.99
2023-02-04T05:43:21.691Z,5.00
2023-02-04T05:44:21.693Z,5.00
2023-02-04T05:45:21.742Z,4.99
2023-02-04T05:46:21.699Z,4.99
2023-02-04T05:47:21.637Z,4.97
2023-02-04T05:48:21.630Z,4.96
2023-02-04T05:49:22.043Z,4.94
2023-02-04T05:50:21.618Z,4.93
2023-02-04T05:51:21.620Z,4.93
2023-02-04T05:52:21.589Z,4.94
2023-02-04T05:53:21.575Z,4.96
2023-02-04T05:54:21.580Z,4.96
2023-02-04T05:55:21.563Z,4.97
2023-02-04T05:56:21.563Z,4.97
2023-02-04T05:57:21.549Z,4.96
2023-02-04T05:58:21.548Z,4.96
2023-02-04T05:59:21.510Z,4.94
2023-02-04T06:00:21.515Z,4.94
2023-02-04T06:01:21.498Z,4.93
2023-02-04T06:02:21.491Z,4.90
2023-02-04T06:03:21.556Z,4.92
2023-02-04T06:04:21.536Z,4.87
2023-02-04T06:05:21.459Z,4.84
2023-02-04T06:06:21.437Z,4.82
2023-02-04T06:07:21.437Z,4.82
2023-02-04T06:08:21.448Z,4.80
2023-02-04T06:09:21.401Z,4.78
2023-02-04T06:10:21.397Z,4.75
2023-02-04T06:11:21.370Z,4.74
2023-02-04T06:12:21.399Z,4.73
2023-02-04T06:13:21.373Z,4.71
2023-02-04T06:14:21.360Z,4.68
2023-02-04T06:15:21.337Z,4.68
2023-02-04T06:16:21.364Z,4.67
2023-02-04T06:17:21.312Z,4.66
2023-02-04T06:18:21.309Z,4.63
2023-02-04T06:19:21.268Z,4.62
2023-02-04T06:20:21.279Z,4.60
2023-02-04T06:21:21.269Z,4.59
2023-02-04T06:22:21.256Z,4.56
2023-02-04T06:23:21.269Z,4.55
2023-02-04T06:24:21.271Z,4.53
2023-02-04T06:25:21.208Z,4.53
2023-02-04T06:26:21.213Z,4.53
2023-02-04T06:27:21.220Z,4.52
2023-02-04T06:28:21.275Z,4.50
2023-02-04T06:29:21.186Z,4.52
2023-02-04T06:30:21.168Z,4.49
2023-02-04T06:31:21.283Z,4.49
2023-02-04T06:32:21.155Z,4.48
2023-02-04T06:33:21.318Z,4.49
2023-02-04T06:34:21.135Z,4.48
2023-02-04T06:35:21.109Z,4.48
2023-02-04T06:36:21.101Z,4.49
2023-02-04T06:37:22.494Z,4.48
2023-02-04T06:38:21.135Z,4.48
2023-02-04T06:39:21.081Z,4.49
2023-02-04T06:40:21.100Z,4.49
2023-02-04T06:41:21.044Z,4.49
2023-02-04T06:42:21.065Z,4.52
2023-02-04T06:43:21.057Z,4.50
2023-02-04T06:44:21.020Z,4.53
2023-02-04T06:45:20.990Z,4.55
2023-02-04T06:46:21.034Z,4.56
2023-02-04T06:47:20.968Z,4.58
2023-02-04T06:48:20.987Z,4.59
2023-02-04T06:49:21.017Z,4.62
2023-02-04T06:50:20.949Z,4.60
2023-02-04T06:51:20.929Z,4.62
2023-02-04T06:52:20.925Z,4.63
2023-02-04T06:53:20.929Z,4.63
2023-02-04T06:54:20.921Z,4.63
2023-02-04T06:55:20.955Z,4.63
2023-02-04T06:56:20.889Z,4.63
2023-02-04T06:57:20.857Z,4.62
2023-02-04T06:58:20.887Z,4.60
2023-02-04T06:59:20.840Z,4.60
2023-02-04T07:00:20.835Z,4.59
2023-02-04T07:01:20.894Z,4.59
2023-02-04T07:02:20.851Z,4.59
2023-02-04T07:03:20.839Z,4.59
2023-02-04T07:04:20.806Z,4.58
2023-02-04T07:05:20.791Z,4.58
2023-02-04T07:06:20.802Z,4.59
2023-02-04T07:07:20.751Z,4.56
2023-02-04T07:08:20.751Z,4.56
2023-02-04T07:09:20.758Z,4.56
2023-02-04T07:10:20.735Z,4.56
2023-02-04T07:11:20.718Z,4.55
2023-02-04T07:12:20.735Z,4.55
2023-02-04T07:13:20.714Z,4.55
2023-02-04T07:14:20.691Z,4.55
2023-02-04T07:15:20.699Z,4.55
2023-02-04T07:16:20.661Z,4.56
2023-02-04T07:17:20.664Z,4.55
2023-02-04T07:18:20.663Z,4.55
2023-02-04T07:19:21.322Z,4.55
2023-02-04T07:20:20.632Z,4.55
2023-02-04T07:21:20.623Z,4.56
2023-02-04T07:22:20.606Z,4.55
2023-02-04T07:23:20.604Z,4.56
2023-02-04T07:24:20.572Z,4.56
2023-02-04T07:25:20.556Z,4.55
2023-02-04T07:26:20.551Z,4.55
2023-02-04T07:27:20.531Z,4.58
2023-02-04T07:28:20.535Z,4.58
2023-02-04T07:29:25.744Z,4.58
2023-02-04T07:30:21.514Z,4.59
2023-02-04T07:31:20.614Z,4.58
2023-02-04T07:32:20.524Z,4.60
2023-02-04T07:33:20.471Z,4.60
2023-02-04T07:34:20.502Z,4.62
2023-02-04T07:35:20.511Z,4.62
2023-02-04T07:36:20.445Z,4.63
2023-02-04T07:37:20.472Z,4.66
2023-02-04T07:38:20.407Z,4.67
2023-02-04T07:39:20.435Z,4.68
2023-02-04T07:40:20.396Z,4.70
2023-02-04T07:41:20.388Z,4.71
2023-02-04T07:42:20.353Z,4.74
2023-02-04T07:43:20.349Z,4.75
2023-02-04T07:44:20.364Z,4.75
2023-02-04T07:45:20.335Z,4.78
2023-02-04T07:46:20.364Z,4.78
2023-02-04T07:47:20.315Z,4.82
2023-02-04T07:48:20.305Z,4.82
2023-02-04T07:49:20.309Z,4.86
2023-02-04T07:50:20.257Z,4.86
2023-02-04T07:51:20.266Z,4.87
2023-02-04T07:52:20.252Z,4.89
2023-02-04T07:53:20.230Z,4.90
2023-02-04T07:54:20.236Z,4.92
2023-02-04T07:55:20.232Z,4.92
2023-02-04T07:56:20.215Z,4.93
2023-02-04T07:57:20.559Z,4.93
2023-02-04T07:58:20.160Z,4.94
2023-02-04T07:59:20.186Z,4.93
2023-02-04T08:00:20.158Z,4.94
2023-02-04T08:01:20.168Z,4.93
2023-02-04T08:02:20.205Z,4.93
2023-02-04T08:03:20.120Z,4.93
2023-02-04T08:04:20.132Z,4.94
2023-02-04T08:05:20.168Z,4.97
2023-02-04T08:06:20.098Z,4.97
2023-02-04T08:07:20.093Z,5.00
2023-02-04T08:08:20.077Z,5.00
2023-02-04T08:09:20.056Z,5.04
2023-02-04T08:10:20.028Z,5.02
2023-02-04T08:11:20.033Z,5.05
2023-02-04T08:12:20.044Z,5.07
2023-02-04T08:13:20.004Z,5.07
2023-02-04T08:14:20.012Z,5.10
2023-02-04T08:15:19.983Z,5.10
2023-02-04T08:16:20.045Z,5.11
2023-02-04T08:17:19.953Z,5.11
2023-02-04T08:18:20.043Z,5.11
2023-02-04T08:19:19.955Z,5.11
2023-02-04T08:20:19.918Z,5.12
2023-02-04T08:21:19.924Z,5.11
2023-02-04T08:22:19.903Z,5.11
2023-02-04T08:23:19.900Z,5.12
2023-02-04T08:24:19.870Z,5.12
2023-02-04T08:25:19.885Z,5.12
2023-02-04T08:26:19.852Z,5.11
2023-02-04T08:27:19.854Z,5.10
2023-02-04T08:28:19.856Z,5.11
2023-02-04T08:29:19.821Z,5.14
2023-02-04T08:30:19.840Z,5.14
2023-02-04T08:31:20.004Z,5.14
2023-02-04T08:32:19.805Z,5.15
2023-02-04T08:33:19.798Z,5.17
2023-02-04T08:34:19.764Z,5.20
2023-02-04T08:35:19.770Z,5.21
2023-02-04T08:36:19.746Z,5.25
2023-02-04T08:37:19.745Z,5.23
2023-02-04T08:38:19.711Z,5.28
2023-02-04T08:39:19.715Z,5.29
2023-02-04T08:40:20.549Z,5.30
2023-02-04T08:41:19.679Z,5.32
2023-02-04T08:42:19.699Z,5.33
2023-02-04T08:43:19.668Z,5.35
2023-02-04T08:44:19.650Z,5.36
2023-02-04T08:45:19.643Z,5.36
2023-02-04T08:46:19.706Z,5.36
2023-02-04T08:47:19.662Z,5.36
2023-02-04T08:48:19.622Z,5.36
2023-02-04T08:49:19.634Z,5.39
2023-02-04T08:50:19.591Z,5.36
2023-02-04T08:51:19.597Z,5.35
2023-02-04T08:52:19.626Z,5.32
2023-02-04T08:53:19.572Z,5.33
2023-02-04T08:54:19.576Z,5.35
2023-02-04T08:55:19.549Z,5.33
2023-02-04T08:56:19.531Z,5.36
2023-02-04T08:57:19.539Z,5.36
2023-02-04T08:58:19.526Z,5.38
2023-02-04T08:59:19.502Z,5.39
2023-02-04T09:00:19.486Z,5.44
2023-02-04T09:01:19.508Z,5.47
2023-02-04T09:02:19.516Z,5.48
2023-02-04T09:03:19.470Z,5.51
2023-02-04T09:04:19.452Z,5.56
2023-02-04T09:05:19.449Z,5.59
2023-02-04T09:06:19.437Z,5.62
2023-02-04T09:07:19.465Z,5.66
2023-02-04T09:08:19.417Z,5.72
2023-02-04T09:09:21.620Z,5.79
2023-02-04T09:10:19.391Z,5.86
2023-02-04T09:11:19.380Z,5.86
2023-02-04T09:12:19.360Z,5.87
2023-02-04T09:13:19.375Z,5.90
2023-02-04T09:14:19.356Z,5.94
2023-02-04T09:15:19.344Z,5.97
2023-02-04T09:16:19.425Z,6.01
2023-02-04T09:17:19.323Z,6.04
2023-02-04T09:18:19.314Z,6.07
2023-02-04T09:19:19.315Z,6.11
2023-02-04T09:20:19.268Z,6.11
2023-02-04T09:21:19.283Z,6.16
2023-02-04T09:22:19.256Z,6.19
2023-02-04T09:23:19.286Z,6.20
2023-02-04T09:24:19.229Z,6.19
2023-02-04T09:25:19.232Z,6.19
2023-02-04T09:26:19.226Z,6.19
2023-02-04T09:27:19.206Z,6.19
2023-02-04T09:28:19.209Z,6.22
2023-02-04T09:29:19.178Z,6.20
2023-02-04T09:30:19.166Z,6.19
2023-02-04T09:31:19.328Z,6.19
2023-02-04T09:32:19.969Z,6.19
2023-02-04T09:33:19.157Z,6.19
2023-02-04T09:34:19.148Z,6.24
2023-02-04T09:35:19.149Z,6.26
2023-02-04T09:36:19.125Z,6.28
2023-02-04T09:37:19.110Z,6.30
2023-02-04T09:38:19.126Z,6.31
2023-02-04T09:39:19.085Z,6.31
2023-02-04T09:40:19.069Z,6.30
2023-02-04T09:41:19.073Z,6.31
2023-02-04T09:42:19.050Z,6.31
2023-02-04T09:43:19.034Z,6.33
2023-02-04T09:44:19.019Z,6.36
2023-02-04T09:45:19.048Z,6.35
2023-02-04T09:46:19.013Z,6.35
2023-02-04T09:47:18.991Z,6.36
2023-02-04T09:48:18.980Z,6.38
2023-02-04T09:49:19.986Z,6.39
2023-02-04T09:50:18.952Z,6.38
2023-02-04T09:51:18.989Z,6.39
2023-02-04T09:52:18.943Z,6.42
2023-02-04T09:53:18.930Z,6.45
2023-02-04T09:54:18.993Z,6.44
2023-02-04T09:55:18.901Z,6.45
2023-02-04T09:56:18.885Z,6.48
2023-02-04T09:57:18.891Z,6.51
2023-02-04T09:58:19.033Z,6.51
2023-02-04T09:59:18.839Z,6.51
2023-02-04T10:00:18.863Z,6.51
2023-02-04T10:01:18.905Z,6.54
2023-02-04T10:02:18.812Z,6.56
2023-02-04T10:03:18.885Z,6.59
2023-02-04T10:04:18.780Z,6.60
2023-02-04T10:05:18.759Z,6.63
2023-02-04T10:06:18.752Z,6.64
2023-02-04T10:07:18.747Z,6.64
2023-02-04T10:08:18.742Z,6.67
2023-02-04T10:09:18.717Z,6.63
2023-02-04T10:10:18.720Z,6.63
2023-02-04T10:11:18.702Z,6.62
2023-02-04T10:12:18.688Z,6.57
2023-02-04T10:13:18.696Z,6.56
2023-02-04T10:14:18.668Z,6.52
2023-02-04T10:15:18.646Z,6.52
2023-02-04T10:16:18.656Z,6.51
2023-02-04T10:17:18.634Z,6.54
2023-02-04T10:18:18.625Z,6.57
2023-02-04T10:19:18.620Z,6.66
2023-02-04T10:20:18.596Z,6.74
2023-02-04T10:21:18.609Z,6.78
2023-02-04T10:22:18.565Z,6.81
2023-02-04T10:23:18.575Z,6.89
2023-02-04T10:24:18.559Z,6.99
2023-02-04T10:25:18.553Z,7.13
2023-02-04T10:26:18.550Z,7.28
2023-02-04T10:27:19.077Z,7.35
2023-02-04T10:28:18.600Z,7.40
2023-02-04T10:29:18.521Z,7.45
2023-02-04T10:30:18.477Z,7.48
2023-02-04T10:31:18.591Z,7.63
2023-02-04T10:32:18.482Z,7.77
2023-02-04T10:33:18.477Z,7.85
2023-02-04T10:34:19.097Z,7.94
2023-02-04T10:35:18.436Z,8.00
2023-02-04T10:36:18.422Z,8.00
2023-02-04T10:37:18.538Z,8.01
2023-02-04T10:38:18.396Z,8.06
2023-02-04T10:39:18.410Z,8.05
2023-02-04T10:40:18.387Z,8.01
2023-02-04T10:41:18.379Z,7.95
2023-02-04T10:42:18.355Z,7.90
2023-02-04T10:43:18.364Z,7.79
2023-02-04T10:44:18.319Z,7.73
2023-02-04T10:45:18.345Z,7.73
2023-02-04T10:46:18.367Z,7.73
2023-02-04T10:47:18.311Z,7.73
2023-02-04T10:48:18.280Z,7.76
2023-02-04T10:49:18.306Z,7.73
2023-02-04T10:50:18.332Z,7.77
2023-02-04T10:51:18.256Z,7.80
2023-02-04T10:52:18.243Z,7.82
2023-02-04T10:53:18.241Z,7.85
2023-02-04T10:54:18.248Z,7.82
2023-02-04T10:55:18.261Z,7.80
2023-02-04T10:56:18.292Z,7.77
2023-02-04T10:57:19.163Z,7.75
2023-02-04T10:58:18.201Z,7.76
2023-02-04T10:59:18.181Z,7.77
2023-02-04T11:00:18.296Z,7.76
2023-02-04T11:01:18.288Z,7.79
2023-02-04T11:02:18.145Z,7.80
2023-02-04T11:03:18.203Z,7.79
2023-02-04T11:04:18.106Z,7.77
2023-02-04T11:05:18.128Z,7.66
2023-02-04T11:06:18.105Z,7.58
2023-02-04T11:07:19.519Z,7.63
2023-02-04T11:08:18.085Z,7.75
2023-02-04T11:09:18.074Z,7.85
2023-02-04T11:10:18.048Z,7.93
2023-02-04T11:11:18.055Z,7.95
2023-02-04T11:12:18.006Z,7.98
2023-02-04T11:13:18.014Z,8.05
2023-02-04T11:14:18.006Z,8.09
2023-02-04T11:15:18.014Z,8.09
2023-02-04T11:16:18.023Z,8.10
2023-02-04T11:17:17.986Z,8.09
2023-02-04T11:18:17.995Z,8.03
2023-02-04T11:19:17.955Z,7.93
2023-02-04T11:20:18.075Z,7.79
2023-02-04T11:21:19.415Z,7.63
2023-02-04T11:22:17.907Z,7.53
2023-02-04T11:23:17.910Z,7.48
2023-02-04T11:24:17.936Z,7.48
2023-02-04T11:25:17.878Z,7.53
2023-02-04T11:26:17.898Z,7.57
2023-02-04T11:27:17.967Z,7.63
2023-02-04T11:28:17.903Z,7.73
2023-02-04T11:29:17.895Z,7.83
2023-02-04T11:30:17.835Z,7.93
2023-02-04T11:31:17.940Z,8.05
2023-02-04T11:32:17.817Z,8.10
2023-02-04T11:33:17.828Z,8.16
2023-02-04T11:34:17.768Z,8.26
2023-02-04T11:35:17.805Z,8.34
2023-02-04T11:36:17.764Z,8.46
2023-02-04T11:37:17.785Z,8.51
2023-02-04T11:38:17.738Z,8.49
2023-02-04T11:39:17.732Z,8.42
2023-02-04T11:40:17.700Z,8.36
2023-02-04T11:41:17.764Z,8.24
2023-02-04T11:42:17.744Z,8.16
2023-02-04T11:43:17.678Z,8.09
2023-02-04T11:44:17.695Z,8.09
2023-02-04T11:45:17.690Z,8.18
2023-02-04T11:46:17.738Z,8.30
2023-02-04T11:47:17.664Z,8.38
2023-02-04T11:48:17.613Z,8.48
2023-02-04T11:49:17.622Z,8.46
2023-02-04T11:50:17.598Z,8.41
2023-02-04T11:51:17.621Z,8.41
2023-02-04T11:52:17.611Z,8.42
2023-02-04T11:53:17.561Z,8.44
2023-02-04T11:54:17.551Z,8.41
2023-02-04T11:55:17.551Z,8.33
2023-02-04T11:56:17.534Z,8.26
2023-02-04T11:57:17.584Z,8.28
2023-02-04T11:58:17.515Z,8.31
2023-02-04T11:59:17.571Z,8.30
2023-02-04T12:00:17.508Z,8.31
2023-02-04T12:01:17.487Z,8.33
2023-02-04T12:02:17.536Z,8.33
2023-02-04T12:03:17.445Z,8.37
2023-02-04T12:04:17.465Z,8.34
2023-02-04T12:05:17.425Z,8.36
2023-02-04T12:06:17.429Z,8.33
2023-02-04T12:07:17.402Z,8.33
2023-02-04T12:08:17.417Z,8.34
2023-02-04T12:09:17.399Z,8.36
2023-02-04T12:10:17.374Z,8.36
2023-02-04T12:11:17.357Z,8.36
2023-02-04T12:12:17.365Z,8.41
2023-02-04T12:13:17.341Z,8.37
2023-02-04T12:14:17.364Z,8.36
2023-02-04T12:15:17.328Z,8.33
2023-02-04T12:16:17.353Z,8.33
2023-02-04T12:17:17.297Z,8.33
2023-02-04T12:18:17.294Z,8.37
2023-02-04T12:19:17.267Z,8.38
2023-02-04T12:20:17.269Z,8.44
2023-02-04T12:21:17.245Z,8.41
2023-02-04T12:22:17.260Z,8.38
2023-02-04T12:23:17.272Z,8.34
2023-02-04T12:24:17.280Z,8.30
2023-02-04T12:25:17.250Z,8.27
2023-02-04T12:26:17.208Z,8.27
2023-02-04T12:27:17.171Z,8.26
2023-02-04T12:28:17.239Z,8.19
2023-02-04T12:29:17.156Z,8.23
2023-02-04T12:30:17.152Z,8.24
2023-02-04T12:31:17.272Z,8.26
2023-02-04T12:32:17.138Z,8.20
2023-02-04T12:33:17.119Z,8.19
2023-02-04T12:34:17.126Z,8.20
2023-02-04T12:35:17.110Z,8.24
2023-02-04T12:36:17.103Z,8.26
2023-02-04T12:37:17.065Z,8.30
2023-02-04T12:38:18.048Z,8.31
2023-02-04T12:39:17.053Z,8.30
2023-02-04T12:40:17.052Z,8.31
2023-02-04T12:41:17.035Z,8.34
2023-02-04T12:42:17.014Z,8.41
2023-02-04T12:43:17.029Z,8.51
2023-02-04T12:44:17.006Z,8.64
2023-02-04T12:45:16.978Z,8.78
2023-02-04T12:46:17.063Z,8.92
2023-02-04T12:47:16.967Z,9.08
2023-02-04T12:48:16.983Z,9.10
2023-02-04T12:49:16.961Z,9.06
2023-02-04T12:50:16.923Z,9.03
2023-02-04T12:51:16.916Z,9.03
2023-02-04T12:52:16.912Z,8.99
2023-02-04T12:53:16.909Z,8.91
2023-02-04T12:54:16.897Z,8.85
2023-02-04T12:55:16.885Z,8.82
2023-02-04T12:56:17.019Z,8.78
2023-02-04T12:57:16.832Z,8.74
2023-02-04T12:58:16.851Z,8.67
2023-02-04T12:59:16.824Z,8.60
2023-02-04T13:00:16.855Z,8.55
2023-02-04T13:01:16.885Z,8.52
2023-02-04T13:02:16.855Z,8.49
2023-02-04T13:03:16.763Z,8.51
2023-02-04T13:04:16.772Z,8.55
2023-02-04T13:05:16.751Z,8.66
2023-02-04T13:06:16.765Z,8.71
2023-02-04T13:07:16.724Z,8.71
2023-02-04T13:08:16.735Z,8.73
2023-02-04T13:09:17.141Z,8.78
2023-02-04T13:10:24.271Z,8.78
2023-02-04T13:11:16.724Z,8.79
2023-02-04T13:12:16.688Z,8.84
2023-02-04T13:13:16.669Z,8.81
2023-02-04T13:14:16.676Z,8.87
2023-02-04T13:15:16.636Z,8.89
2023-02-04T13:16:16.662Z,8.92
2023-02-04T13:17:16.644Z,8.94
2023-02-04T13:18:17.491Z,8.99